sensor_id;sensor_type;location;lat;lon;timestamp;temperature;humidity
41838;DHT22;27511;52.042;5.178;2022-08-05T00:00:54;24.40;99.90
41838;DHT22;27511;52.042;5.178;2022-08-05T00:03:20;24.40;99.90
41838;DHT22;27511;52.042;5.178;2022-08-05T00:05:46;24.30;99.90
41838;DHT22;27511;52.042;5.178;2022-08-05T00:08:11;24.30;99.90
41838;DHT22;27511;52.042;5.178;2022-08-05T00:10:37;24.20;99.90
41838;DHT22;27511;52.042;5.178;2022-08-05T00:13:02;24.20;99.90
41838;DHT22;27511;52.042;5.178;2022-08-05T00:15:28;24.30;99.90
41838;DHT22;27511;52.042;5.178;2022-08-05T00:17:53;24.30;99.90
41838;DHT22;27511;52.042;5.178;2022-08-05T00:20:19;24.20;99.90
41838;DHT22;27511;52.042;5.178;2022-08-05T00:22:44;24.30;99.90
41838;DHT22;27511;52.042;5.178;2022-08-05T00:25:10;24.20;99.90
41838;DHT22;27511;52.042;5.178;2022-08-05T00:27:35;24.20;99.90
41838;DHT22;27511;52.042;5.178;2022-08-05T00:30:01;24.20;99.90
41838;DHT22;27511;52.042;5.178;2022-08-05T00:32:27;24.20;99.90
41838;DHT22;27511;52.042;5.178;2022-08-05T00:34:52;24.10;99.90
41838;DHT22;27511;52.042;5.178;2022-08-05T00:37:18;24.10;99.90
41838;DHT22;27511;52.042;5.178;2022-08-05T00:39:43;24.20;99.90
41838;DHT22;27511;52.042;5.178;2022-08-05T00:42:09;24.20;99.90
41838;DHT22;27511;52.042;5.178;2022-08-05T00:44:34;24.20;99.90
41838;DHT22;27511;52.042;5.178;2022-08-05T00:47:00;24.20;99.90
41838;DHT22;27511;52.042;5.178;2022-08-05T00:49:25;24.20;99.90
41838;DHT22;27511;52.042;5.178;2022-08-05T00:51:51;24.10;99.90
41838;DHT22;27511;52.042;5.178;2022-08-05T00:54:16;24.10;99.90
41838;DHT22;27511;52.042;5.178;2022-08-05T00:56:42;24.10;99.90
41838;DHT22;27511;52.042;5.178;2022-08-05T00:59:08;24.00;99.90
41838;DHT22;27511;52.042;5.178;2022-08-05T01:01:33;24.10;99.90
41838;DHT22;27511;52.042;5.178;2022-08-05T01:03:59;24.00;99.90
41838;DHT22;27511;52.042;5.178;2022-08-05T01:06:24;24.00;99.90
41838;DHT22;27511;52.042;5.178;2022-08-05T01:08:50;23.90;99.90
41838;DHT22;27511;52.042;5.178;2022-08-05T01:11:22;23.90;99.90
41838;DHT22;27511;52.042;5.178;2022-08-05T01:17:02;23.90;99.90
41838;DHT22;27511;52.042;5.178;2022-08-05T01:19:51;23.90;99.90
41838;DHT22;27511;52.042;5.178;2022-08-05T01:22:37;23.90;99.90
41838;DHT22;27511;52.042;5.178;2022-08-05T01:25:28;23.90;99.90
41838;DHT22;27511;52.042;5.178;2022-08-05T01:28:17;23.80;99.90
41838;DHT22;27511;52.042;5.178;2022-08-05T01:33:58;23.80;99.90
41838;DHT22;27511;52.042;5.178;2022-08-05T01:36:27;23.80;99.90
41838;DHT22;27511;52.042;5.178;2022-08-05T01:38:54;23.70;99.90
41838;DHT22;27511;52.042;5.178;2022-08-05T01:41:21;23.70;99.90
41838;DHT22;27511;52.042;5.178;2022-08-05T01:43:49;23.80;99.90
41838;DHT22;27511;52.042;5.178;2022-08-05T01:46:18;23.80;99.90
41838;DHT22;27511;52.042;5.178;2022-08-05T01:48:45;23.80;99.90
41838;DHT22;27511;52.042;5.178;2022-08-05T01:51:11;23.70;99.90
41838;DHT22;27511;52.042;5.178;2022-08-05T01:53:38;23.80;99.90
41838;DHT22;27511;52.042;5.178;2022-08-05T01:56:06;23.80;99.90
41838;DHT22;27511;52.042;5.178;2022-08-05T01:58:35;23.70;99.90
41838;DHT22;27511;52.042;5.178;2022-08-05T02:01:01;23.70;99.90
41838;DHT22;27511;52.042;5.178;2022-08-05T02:03:31;23.70;99.90
41838;DHT22;27511;52.042;5.178;2022-08-05T02:06:00;23.80;99.90
41838;DHT22;27511;52.042;5.178;2022-08-05T02:08:26;23.70;99.90
41838;DHT22;27511;52.042;5.178;2022-08-05T02:10:55;23.70;99.90
41838;DHT22;27511;52.042;5.178;2022-08-05T02:13:30;23.70;99.90
41838;DHT22;27511;52.042;5.178;2022-08-05T02:16:05;23.70;99.90
41838;DHT22;27511;52.042;5.178;2022-08-05T02:18:36;23.60;99.90
41838;DHT22;27511;52.042;5.178;2022-08-05T02:21:17;23.70;99.90
41838;DHT22;27511;52.042;5.178;2022-08-05T02:23:47;23.70;99.90
41838;DHT22;27511;52.042;5.178;2022-08-05T02:26:19;23.70;99.90
41838;DHT22;27511;52.042;5.178;2022-08-05T02:28:46;23.60;99.90
41838;DHT22;27511;52.042;5.178;2022-08-05T02:31:17;23.60;99.90
41838;DHT22;27511;52.042;5.178;2022-08-05T02:33:49;23.60;99.90
41838;DHT22;27511;52.042;5.178;2022-08-05T02:36:18;23.60;99.90
41838;DHT22;27511;52.042;5.178;2022-08-05T02:38:46;23.70;99.90
41838;DHT22;27511;52.042;5.178;2022-08-05T02:41:12;23.70;99.90
41838;DHT22;27511;52.042;5.178;2022-08-05T02:43:40;23.70;99.90
41838;DHT22;27511;52.042;5.178;2022-08-05T02:46:06;23.70;99.90
41838;DHT22;27511;52.042;5.178;2022-08-05T02:48:32;23.70;99.90
41838;DHT22;27511;52.042;5.178;2022-08-05T02:50:59;23.60;99.90
41838;DHT22;27511;52.042;5.178;2022-08-05T02:53:27;23.60;99.90
41838;DHT22;27511;52.042;5.178;2022-08-05T02:55:54;23.50;99.90
41838;DHT22;27511;52.042;5.178;2022-08-05T02:58:21;23.50;99.90
41838;DHT22;27511;52.042;5.178;2022-08-05T03:00:47;23.50;99.90
41838;DHT22;27511;52.042;5.178;2022-08-05T03:03:15;23.50;99.90
41838;DHT22;27511;52.042;5.178;2022-08-05T03:05:45;23.40;99.90
41838;DHT22;27511;52.042;5.178;2022-08-05T03:08:12;23.40;99.90
41838;DHT22;27511;52.042;5.178;2022-08-05T03:10:42;23.40;99.90
41838;DHT22;27511;52.042;5.178;2022-08-05T03:13:12;23.30;99.90
41838;DHT22;27511;52.042;5.178;2022-08-05T03:15:46;23.30;99.90
41838;DHT22;27511;52.042;5.178;2022-08-05T03:18:12;23.30;99.90
41838;DHT22;27511;52.042;5.178;2022-08-05T03:20:39;23.20;99.90
41838;DHT22;27511;52.042;5.178;2022-08-05T03:23:06;23.20;99.90
41838;DHT22;27511;52.042;5.178;2022-08-05T03:25:33;23.20;99.90
41838;DHT22;27511;52.042;5.178;2022-08-05T03:28:00;23.10;99.90
41838;DHT22;27511;52.042;5.178;2022-08-05T03:30:27;23.10;99.90
41838;DHT22;27511;52.042;5.178;2022-08-05T03:32:53;23.00;99.90
41838;DHT22;27511;52.042;5.178;2022-08-05T03:35:19;23.00;99.90
41838;DHT22;27511;52.042;5.178;2022-08-05T03:37:45;22.90;99.90
41838;DHT22;27511;52.042;5.178;2022-08-05T03:40:11;22.90;99.90
41838;DHT22;27511;52.042;5.178;2022-08-05T03:42:37;22.90;99.90
41838;DHT22;27511;52.042;5.178;2022-08-05T03:45:05;22.90;99.90
41838;DHT22;27511;52.042;5.178;2022-08-05T03:47:31;22.90;99.90
41838;DHT22;27511;52.042;5.178;2022-08-05T03:49:57;22.90;99.90
41838;DHT22;27511;52.042;5.178;2022-08-05T03:52:27;23.00;99.90
41838;DHT22;27511;52.042;5.178;2022-08-05T03:55:01;23.00;99.90
41838;DHT22;27511;52.042;5.178;2022-08-05T03:57:29;23.00;99.90
41838;DHT22;27511;52.042;5.178;2022-08-05T04:00:16;23.10;99.90
41838;DHT22;27511;52.042;5.178;2022-08-05T04:02:45;23.00;99.90
41838;DHT22;27511;52.042;5.178;2022-08-05T04:05:14;23.10;99.90
41838;DHT22;27511;52.042;5.178;2022-08-05T04:07:40;23.00;99.90
41838;DHT22;27511;52.042;5.178;2022-08-05T04:10:07;23.00;99.90
41838;DHT22;27511;52.042;5.178;2022-08-05T04:12:33;23.00;99.90
41838;DHT22;27511;52.042;5.178;2022-08-05T04:14:59;22.90;99.90
41838;DHT22;27511;52.042;5.178;2022-08-05T04:17:26;22.90;99.90
41838;DHT22;27511;52.042;5.178;2022-08-05T04:19:51;22.90;99.90
41838;DHT22;27511;52.042;5.178;2022-08-05T04:22:17;23.00;99.90
41838;DHT22;27511;52.042;5.178;2022-08-05T04:24:44;22.90;99.90
41838;DHT22;27511;52.042;5.178;2022-08-05T04:27:11;22.90;99.90
41838;DHT22;27511;52.042;5.178;2022-08-05T04:29:37;22.80;99.90
41838;DHT22;27511;52.042;5.178;2022-08-05T04:32:03;22.70;99.90
41838;DHT22;27511;52.042;5.178;2022-08-05T04:34:28;22.70;99.90
41838;DHT22;27511;52.042;5.178;2022-08-05T04:36:54;22.70;99.90
41838;DHT22;27511;52.042;5.178;2022-08-05T04:39:20;22.60;99.90
41838;DHT22;27511;52.042;5.178;2022-08-05T04:41:46;22.50;99.90
41838;DHT22;27511;52.042;5.178;2022-08-05T04:44:13;22.50;99.90
41838;DHT22;27511;52.042;5.178;2022-08-05T04:49:08;22.30;99.90
41838;DHT22;27511;52.042;5.178;2022-08-05T04:51:34;22.30;99.90
41838;DHT22;27511;52.042;5.178;2022-08-05T04:53:59;22.30;99.90
41838;DHT22;27511;52.042;5.178;2022-08-05T04:56:25;22.30;99.90
41838;DHT22;27511;52.042;5.178;2022-08-05T04:58:51;22.20;99.90
41838;DHT22;27511;52.042;5.178;2022-08-05T05:01:16;22.20;99.90
41838;DHT22;27511;52.042;5.178;2022-08-05T05:03:42;22.10;99.90
41838;DHT22;27511;52.042;5.178;2022-08-05T05:06:12;22.10;99.90
41838;DHT22;27511;52.042;5.178;2022-08-05T05:08:38;22.10;99.90
41838;DHT22;27511;52.042;5.178;2022-08-05T05:11:04;22.10;99.90
41838;DHT22;27511;52.042;5.178;2022-08-05T05:13:29;22.20;99.90
41838;DHT22;27511;52.042;5.178;2022-08-05T05:15:55;22.20;99.90
41838;DHT22;27511;52.042;5.178;2022-08-05T05:18:21;22.20;99.90
41838;DHT22;27511;52.042;5.178;2022-08-05T05:20:47;22.10;99.90
41838;DHT22;27511;52.042;5.178;2022-08-05T05:23:13;22.00;99.90
41838;DHT22;27511;52.042;5.178;2022-08-05T05:25:42;22.00;99.90
41838;DHT22;27511;52.042;5.178;2022-08-05T05:28:09;22.00;99.90
41838;DHT22;27511;52.042;5.178;2022-08-05T05:30:38;22.00;99.90
41838;DHT22;27511;52.042;5.178;2022-08-05T05:33:06;22.00;99.90
41838;DHT22;27511;52.042;5.178;2022-08-05T05:35:32;22.00;99.90
41838;DHT22;27511;52.042;5.178;2022-08-05T05:37:59;22.00;99.90
41838;DHT22;27511;52.042;5.178;2022-08-05T05:40:29;21.90;99.90
41838;DHT22;27511;52.042;5.178;2022-08-05T05:42:55;21.90;99.90
41838;DHT22;27511;52.042;5.178;2022-08-05T05:45:21;21.90;99.90
41838;DHT22;27511;52.042;5.178;2022-08-05T05:47:47;21.90;99.90
41838;DHT22;27511;52.042;5.178;2022-08-05T05:50:17;22.10;99.90
41838;DHT22;27511;52.042;5.178;2022-08-05T05:52:43;22.00;99.90
41838;DHT22;27511;52.042;5.178;2022-08-05T05:55:11;22.10;99.90
41838;DHT22;27511;52.042;5.178;2022-08-05T05:57:38;22.20;99.90
41838;DHT22;27511;52.042;5.178;2022-08-05T06:00:06;22.10;99.90
41838;DHT22;27511;52.042;5.178;2022-08-05T06:02:32;22.00;99.90
41838;DHT22;27511;52.042;5.178;2022-08-05T06:04:58;22.10;99.90
41838;DHT22;27511;52.042;5.178;2022-08-05T06:07:23;22.00;99.90
41838;DHT22;27511;52.042;5.178;2022-08-05T06:09:49;22.00;99.90
41838;DHT22;27511;52.042;5.178;2022-08-05T06:12:15;22.10;99.90
41838;DHT22;27511;52.042;5.178;2022-08-05T06:14:40;22.00;99.90
41838;DHT22;27511;52.042;5.178;2022-08-05T06:17:09;22.10;99.90
41838;DHT22;27511;52.042;5.178;2022-08-05T06:19:35;22.10;99.90
41838;DHT22;27511;52.042;5.178;2022-08-05T06:22:05;22.10;99.90
41838;DHT22;27511;52.042;5.178;2022-08-05T06:24:31;22.10;99.90
41838;DHT22;27511;52.042;5.178;2022-08-05T06:26:57;22.10;99.90
41838;DHT22;27511;52.042;5.178;2022-08-05T06:29:23;22.10;99.90
41838;DHT22;27511;52.042;5.178;2022-08-05T06:31:49;22.10;99.90
41838;DHT22;27511;52.042;5.178;2022-08-05T06:34:14;22.00;99.90
41838;DHT22;27511;52.042;5.178;2022-08-05T06:36:40;22.10;99.90
41838;DHT22;27511;52.042;5.178;2022-08-05T06:39:05;22.20;99.90
41838;DHT22;27511;52.042;5.178;2022-08-05T06:41:31;22.30;99.90
41838;DHT22;27511;52.042;5.178;2022-08-05T06:43:56;22.30;99.90
41838;DHT22;27511;52.042;5.178;2022-08-05T06:46:22;22.40;99.90
41838;DHT22;27511;52.042;5.178;2022-08-05T06:48:48;22.30;99.90
41838;DHT22;27511;52.042;5.178;2022-08-05T06:51:13;22.40;99.90
41838;DHT22;27511;52.042;5.178;2022-08-05T06:53:39;22.30;99.90
41838;DHT22;27511;52.042;5.178;2022-08-05T06:56:05;22.30;99.90
41838;DHT22;27511;52.042;5.178;2022-08-05T06:58:31;22.30;99.90
41838;DHT22;27511;52.042;5.178;2022-08-05T07:00:58;22.40;99.90
41838;DHT22;27511;52.042;5.178;2022-08-05T07:03:25;22.40;99.90
41838;DHT22;27511;52.042;5.178;2022-08-05T07:05:51;22.40;99.90
41838;DHT22;27511;52.042;5.178;2022-08-05T07:08:16;22.40;99.90
41838;DHT22;27511;52.042;5.178;2022-08-05T07:10:42;22.40;99.90
41838;DHT22;27511;52.042;5.178;2022-08-05T07:13:07;22.50;99.90
41838;DHT22;27511;52.042;5.178;2022-08-05T07:15:51;22.50;99.90
41838;DHT22;27511;52.042;5.178;2022-08-05T07:18:35;22.60;99.90
41838;DHT22;27511;52.042;5.178;2022-08-05T07:21:01;22.50;99.90
41838;DHT22;27511;52.042;5.178;2022-08-05T07:23:27;22.50;99.90
41838;DHT22;27511;52.042;5.178;2022-08-05T07:25:52;22.50;99.90
41838;DHT22;27511;52.042;5.178;2022-08-05T07:28:18;22.60;99.90
41838;DHT22;27511;52.042;5.178;2022-08-05T07:30:44;22.60;99.90
41838;DHT22;27511;52.042;5.178;2022-08-05T07:33:11;22.70;99.90
41838;DHT22;27511;52.042;5.178;2022-08-05T07:35:37;22.60;99.90
41838;DHT22;27511;52.042;5.178;2022-08-05T07:38:03;22.60;99.90
41838;DHT22;27511;52.042;5.178;2022-08-05T07:40:29;22.70;99.90
41838;DHT22;27511;52.042;5.178;2022-08-05T07:42:54;22.70;99.90
41838;DHT22;27511;52.042;5.178;2022-08-05T07:45:20;22.80;99.90
41838;DHT22;27511;52.042;5.178;2022-08-05T07:47:45;22.80;99.90
41838;DHT22;27511;52.042;5.178;2022-08-05T07:50:11;22.80;99.90
41838;DHT22;27511;52.042;5.178;2022-08-05T07:52:38;22.80;99.90
41838;DHT22;27511;52.042;5.178;2022-08-05T07:55:04;22.90;99.90
41838;DHT22;27511;52.042;5.178;2022-08-05T07:57:30;22.90;99.90
41838;DHT22;27511;52.042;5.178;2022-08-05T07:59:56;23.10;99.90
41838;DHT22;27511;52.042;5.178;2022-08-05T08:02:26;23.10;99.90
41838;DHT22;27511;52.042;5.178;2022-08-05T08:04:52;23.10;99.90
41838;DHT22;27511;52.042;5.178;2022-08-05T08:07:17;23.20;99.90
41838;DHT22;27511;52.042;5.178;2022-08-05T08:09:44;23.20;99.90
41838;DHT22;27511;52.042;5.178;2022-08-05T08:12:10;23.40;99.90
41838;DHT22;27511;52.042;5.178;2022-08-05T08:14:37;23.40;99.90
41838;DHT22;27511;52.042;5.178;2022-08-05T08:17:03;23.40;99.90
41838;DHT22;27511;52.042;5.178;2022-08-05T08:19:29;23.50;99.90
41838;DHT22;27511;52.042;5.178;2022-08-05T08:21:54;23.40;99.90
41838;DHT22;27511;52.042;5.178;2022-08-05T08:24:20;23.50;99.90
41838;DHT22;27511;52.042;5.178;2022-08-05T08:26:45;23.50;99.90
41838;DHT22;27511;52.042;5.178;2022-08-05T08:29:11;23.50;99.90
41838;DHT22;27511;52.042;5.178;2022-08-05T08:31:36;23.60;99.90
41838;DHT22;27511;52.042;5.178;2022-08-05T08:34:02;23.70;99.90
41838;DHT22;27511;52.042;5.178;2022-08-05T08:36:27;23.80;99.90
41838;DHT22;27511;52.042;5.178;2022-08-05T08:38:53;23.80;99.90
41838;DHT22;27511;52.042;5.178;2022-08-05T08:41:22;23.80;99.90
41838;DHT22;27511;52.042;5.178;2022-08-05T08:43:49;23.80;99.90
41838;DHT22;27511;52.042;5.178;2022-08-05T08:46:17;23.80;99.90
41838;DHT22;27511;52.042;5.178;2022-08-05T08:48:44;23.70;99.90
41838;DHT22;27511;52.042;5.178;2022-08-05T08:51:10;23.60;99.90
41838;DHT22;27511;52.042;5.178;2022-08-05T08:53:37;23.60;99.90
41838;DHT22;27511;52.042;5.178;2022-08-05T08:56:03;23.70;99.90
41838;DHT22;27511;52.042;5.178;2022-08-05T08:58:29;23.80;99.90
41838;DHT22;27511;52.042;5.178;2022-08-05T09:00:56;23.80;99.90
41838;DHT22;27511;52.042;5.178;2022-08-05T09:03:23;23.70;99.90
41838;DHT22;27511;52.042;5.178;2022-08-05T09:05:48;23.80;99.90
41838;DHT22;27511;52.042;5.178;2022-08-05T09:08:14;23.80;99.90
41838;DHT22;27511;52.042;5.178;2022-08-05T09:10:41;23.80;99.90
41838;DHT22;27511;52.042;5.178;2022-08-05T09:13:12;23.80;99.90
41838;DHT22;27511;52.042;5.178;2022-08-05T09:15:37;23.80;99.90
41838;DHT22;27511;52.042;5.178;2022-08-05T09:18:06;23.80;99.90
41838;DHT22;27511;52.042;5.178;2022-08-05T09:20:32;23.90;99.90
41838;DHT22;27511;52.042;5.178;2022-08-05T09:23:11;24.00;99.90
41838;DHT22;27511;52.042;5.178;2022-08-05T09:25:42;24.10;99.90
41838;DHT22;27511;52.042;5.178;2022-08-05T09:28:14;24.20;99.90
41838;DHT22;27511;52.042;5.178;2022-08-05T09:31:06;24.20;99.90
41838;DHT22;27511;52.042;5.178;2022-08-05T09:33:30;24.40;99.90
41838;DHT22;27511;52.042;5.178;2022-08-05T09:36:00;24.40;99.90
41838;DHT22;27511;52.042;5.178;2022-08-05T09:38:26;24.40;99.90
41838;DHT22;27511;52.042;5.178;2022-08-05T09:40:53;24.40;99.90
41838;DHT22;27511;52.042;5.178;2022-08-05T09:43:28;24.40;99.90
41838;DHT22;27511;52.042;5.178;2022-08-05T09:45:53;24.40;99.90
41838;DHT22;27511;52.042;5.178;2022-08-05T09:48:24;24.40;99.90
41838;DHT22;27511;52.042;5.178;2022-08-05T09:50:56;24.40;99.90
41838;DHT22;27511;52.042;5.178;2022-08-05T09:53:23;24.40;99.90
41838;DHT22;27511;52.042;5.178;2022-08-05T09:55:57;24.40;99.90
41838;DHT22;27511;52.042;5.178;2022-08-05T09:58:24;24.40;99.90
41838;DHT22;27511;52.042;5.178;2022-08-05T10:01:01;24.30;99.90
41838;DHT22;27511;52.042;5.178;2022-08-05T10:03:28;24.30;99.90
41838;DHT22;27511;52.042;5.178;2022-08-05T10:06:08;24.30;99.90
41838;DHT22;27511;52.042;5.178;2022-08-05T10:08:37;24.30;99.90
41838;DHT22;27511;52.042;5.178;2022-08-05T10:11:12;24.30;99.90
41838;DHT22;27511;52.042;5.178;2022-08-05T10:13:38;24.30;99.90
41838;DHT22;27511;52.042;5.178;2022-08-05T10:16:05;24.40;99.90
41838;DHT22;27511;52.042;5.178;2022-08-05T10:18:32;24.50;99.90
41838;DHT22;27511;52.042;5.178;2022-08-05T10:21:01;24.50;99.90
41838;DHT22;27511;52.042;5.178;2022-08-05T10:23:34;24.50;99.90
41838;DHT22;27511;52.042;5.178;2022-08-05T10:26:03;24.60;99.90
41838;DHT22;27511;52.042;5.178;2022-08-05T10:28:29;24.60;99.90
41838;DHT22;27511;52.042;5.178;2022-08-05T10:30:56;24.70;99.90
41838;DHT22;27511;52.042;5.178;2022-08-05T10:33:23;24.70;99.90
41838;DHT22;27511;52.042;5.178;2022-08-05T10:35:50;24.50;99.90
41838;DHT22;27511;52.042;5.178;2022-08-05T10:38:19;24.40;99.90
41838;DHT22;27511;52.042;5.178;2022-08-05T10:45:58;24.40;99.90
41838;DHT22;27511;52.042;5.178;2022-08-05T10:48:29;24.50;99.90
41838;DHT22;27511;52.042;5.178;2022-08-05T10:51:01;24.50;99.90
41838;DHT22;27511;52.042;5.178;2022-08-05T10:56:26;24.50;99.90
41838;DHT22;27511;52.042;5.178;2022-08-05T11:01:27;24.40;99.90
41838;DHT22;27511;52.042;5.178;2022-08-05T11:09:27;24.30;99.90
41838;DHT22;27511;52.042;5.178;2022-08-05T11:11:53;24.30;99.90
41838;DHT22;27511;52.042;5.178;2022-08-05T11:14:31;24.40;99.90
41838;DHT22;27511;52.042;5.178;2022-08-05T11:17:30;24.40;99.90
41838;DHT22;27511;52.042;5.178;2022-08-05T11:19:58;24.40;99.90
41838;DHT22;27511;52.042;5.178;2022-08-05T11:22:44;24.40;99.90
41838;DHT22;27511;52.042;5.178;2022-08-05T11:25:38;24.30;99.90
41838;DHT22;27511;52.042;5.178;2022-08-05T11:33:26;24.20;99.90
41838;DHT22;27511;52.042;5.178;2022-08-05T11:41:50;24.40;99.90
41838;DHT22;27511;52.042;5.178;2022-08-05T11:44:19;24.40;99.90
41838;DHT22;27511;52.042;5.178;2022-08-05T11:46:48;24.50;99.90
41838;DHT22;27511;52.042;5.178;2022-08-05T11:49:19;24.70;99.90
41838;DHT22;27511;52.042;5.178;2022-08-05T11:51:49;24.60;99.90
41838;DHT22;27511;52.042;5.178;2022-08-05T11:54:24;24.90;99.90
41838;DHT22;27511;52.042;5.178;2022-08-05T11:56:53;24.70;99.90
41838;DHT22;27511;52.042;5.178;2022-08-05T11:59:23;24.60;99.90
41838;DHT22;27511;52.042;5.178;2022-08-05T12:02:01;24.70;99.90
41838;DHT22;27511;52.042;5.178;2022-08-05T12:04:37;24.80;99.90
41838;DHT22;27511;52.042;5.178;2022-08-05T12:07:05;24.60;99.90
41838;DHT22;27511;52.042;5.178;2022-08-05T12:09:36;24.40;99.90
41838;DHT22;27511;52.042;5.178;2022-08-05T12:12:04;24.40;99.90
41838;DHT22;27511;52.042;5.178;2022-08-05T12:14:42;24.40;99.90
41838;DHT22;27511;52.042;5.178;2022-08-05T12:17:12;24.40;99.90
41838;DHT22;27511;52.042;5.178;2022-08-05T12:19:49;24.50;99.90
41838;DHT22;27511;52.042;5.178;2022-08-05T12:22:20;24.40;99.90
41838;DHT22;27511;52.042;5.178;2022-08-05T12:24:48;24.50;99.90
41838;DHT22;27511;52.042;5.178;2022-08-05T12:27:22;24.50;99.90
41838;DHT22;27511;52.042;5.178;2022-08-05T12:32:27;24.70;99.90
41838;DHT22;27511;52.042;5.178;2022-08-05T12:34:56;24.60;99.90
41838;DHT22;27511;52.042;5.178;2022-08-05T12:37:22;24.80;99.90
41838;DHT22;27511;52.042;5.178;2022-08-05T12:39:49;24.90;99.90
41838;DHT22;27511;52.042;5.178;2022-08-05T12:42:16;25.00;99.90
41838;DHT22;27511;52.042;5.178;2022-08-05T12:44:43;25.00;99.90
41838;DHT22;27511;52.042;5.178;2022-08-05T12:47:09;25.00;99.90
41838;DHT22;27511;52.042;5.178;2022-08-05T12:49:46;24.80;99.90
41838;DHT22;27511;52.042;5.178;2022-08-05T12:52:17;24.70;99.90
41838;DHT22;27511;52.042;5.178;2022-08-05T12:54:44;24.60;99.90
41838;DHT22;27511;52.042;5.178;2022-08-05T12:57:11;24.60;99.90
41838;DHT22;27511;52.042;5.178;2022-08-05T12:59:53;24.60;99.90
41838;DHT22;27511;52.042;5.178;2022-08-05T13:02:24;24.80;99.90
41838;DHT22;27511;52.042;5.178;2022-08-05T13:04:52;24.90;99.90
41838;DHT22;27511;52.042;5.178;2022-08-05T13:07:20;25.10;99.90
41838;DHT22;27511;52.042;5.178;2022-08-05T13:09:54;25.40;99.90
41838;DHT22;27511;52.042;5.178;2022-08-05T13:12:22;25.50;99.90
41838;DHT22;27511;52.042;5.178;2022-08-05T13:14:49;25.40;99.90
41838;DHT22;27511;52.042;5.178;2022-08-05T13:19:57;26.10;99.90
41838;DHT22;27511;52.042;5.178;2022-08-05T13:22:24;26.30;99.90
41838;DHT22;27511;52.042;5.178;2022-08-05T13:24:50;26.00;99.90
41838;DHT22;27511;52.042;5.178;2022-08-05T13:29:58;25.90;99.90
41838;DHT22;27511;52.042;5.178;2022-08-05T13:32:24;25.90;99.90
41838;DHT22;27511;52.042;5.178;2022-08-05T13:34:50;25.80;99.90
41838;DHT22;27511;52.042;5.178;2022-08-05T13:37:20;26.10;99.90
41838;DHT22;27511;52.042;5.178;2022-08-05T13:39:50;26.30;99.90
41838;DHT22;27511;52.042;5.178;2022-08-05T13:42:18;26.20;99.90
41838;DHT22;27511;52.042;5.178;2022-08-05T13:44:43;26.00;99.90
41838;DHT22;27511;52.042;5.178;2022-08-05T13:47:09;25.80;99.90
41838;DHT22;27511;52.042;5.178;2022-08-05T13:49:35;25.80;99.90
41838;DHT22;27511;52.042;5.178;2022-08-05T13:52:11;25.80;99.90
41838;DHT22;27511;52.042;5.178;2022-08-05T13:54:37;25.80;99.90
41838;DHT22;27511;52.042;5.178;2022-08-05T13:57:03;25.80;99.90
41838;DHT22;27511;52.042;5.178;2022-08-05T13:59:29;26.00;99.90
41838;DHT22;27511;52.042;5.178;2022-08-05T14:01:55;26.20;99.90
41838;DHT22;27511;52.042;5.178;2022-08-05T14:04:21;26.40;99.90
41838;DHT22;27511;52.042;5.178;2022-08-05T14:07:05;26.40;99.90
41838;DHT22;27511;52.042;5.178;2022-08-05T14:09:33;26.40;99.90
41838;DHT22;27511;52.042;5.178;2022-08-05T14:11:58;26.50;99.90
41838;DHT22;27511;52.042;5.178;2022-08-05T14:14:24;26.60;99.90
41838;DHT22;27511;52.042;5.178;2022-08-05T14:16:50;26.50;99.90
41838;DHT22;27511;52.042;5.178;2022-08-05T14:19:16;26.30;99.90
41838;DHT22;27511;52.042;5.178;2022-08-05T14:21:41;26.20;99.90
41838;DHT22;27511;52.042;5.178;2022-08-05T14:24:07;26.20;99.90
41838;DHT22;27511;52.042;5.178;2022-08-05T14:26:35;26.20;99.90
41838;DHT22;27511;52.042;5.178;2022-08-05T14:29:01;26.30;99.90
41838;DHT22;27511;52.042;5.178;2022-08-05T14:31:27;26.30;99.90
41838;DHT22;27511;52.042;5.178;2022-08-05T14:33:52;26.20;99.90
41838;DHT22;27511;52.042;5.178;2022-08-05T14:36:18;25.80;99.90
41838;DHT22;27511;52.042;5.178;2022-08-05T14:38:44;25.70;99.90
41838;DHT22;27511;52.042;5.178;2022-08-05T14:41:09;25.50;99.90
41838;DHT22;27511;52.042;5.178;2022-08-05T14:43:36;25.50;99.90
41838;DHT22;27511;52.042;5.178;2022-08-05T14:46:01;25.50;99.90
41838;DHT22;27511;52.042;5.178;2022-08-05T14:48:27;25.50;99.90
41838;DHT22;27511;52.042;5.178;2022-08-05T14:50:53;25.50;99.90
41838;DHT22;27511;52.042;5.178;2022-08-05T14:53:18;25.40;99.90
41838;DHT22;27511;52.042;5.178;2022-08-05T14:55:44;25.20;99.90
41838;DHT22;27511;52.042;5.178;2022-08-05T14:58:09;25.20;99.90
41838;DHT22;27511;52.042;5.178;2022-08-05T15:00:35;25.20;99.90
41838;DHT22;27511;52.042;5.178;2022-08-05T15:03:01;25.00;99.90
41838;DHT22;27511;52.042;5.178;2022-08-05T15:05:27;24.80;99.90
41838;DHT22;27511;52.042;5.178;2022-08-05T15:07:52;24.60;99.90
41838;DHT22;27511;52.042;5.178;2022-08-05T15:10:18;24.60;99.90
41838;DHT22;27511;52.042;5.178;2022-08-05T15:12:44;24.50;99.90
41838;DHT22;27511;52.042;5.178;2022-08-05T15:15:12;24.40;99.90
41838;DHT22;27511;52.042;5.178;2022-08-05T15:17:38;24.60;99.90
41838;DHT22;27511;52.042;5.178;2022-08-05T15:20:05;24.90;99.90
41838;DHT22;27511;52.042;5.178;2022-08-05T15:22:30;25.20;99.90
41838;DHT22;27511;52.042;5.178;2022-08-05T15:24:56;25.40;99.90
41838;DHT22;27511;52.042;5.178;2022-08-05T15:27:23;25.60;99.90
41838;DHT22;27511;52.042;5.178;2022-08-05T15:29:49;25.70;99.90
41838;DHT22;27511;52.042;5.178;2022-08-05T15:32:14;25.70;99.90
41838;DHT22;27511;52.042;5.178;2022-08-05T15:34:40;25.90;99.90
41838;DHT22;27511;52.042;5.178;2022-08-05T15:37:05;26.40;99.90
41838;DHT22;27511;52.042;5.178;2022-08-05T15:39:31;27.10;99.90
41838;DHT22;27511;52.042;5.178;2022-08-05T15:41:57;27.50;99.90
41838;DHT22;27511;52.042;5.178;2022-08-05T15:44:22;28.00;99.90
41838;DHT22;27511;52.042;5.178;2022-08-05T15:46:48;28.90;99.90
41838;DHT22;27511;52.042;5.178;2022-08-05T15:49:13;28.80;99.90
41838;DHT22;27511;52.042;5.178;2022-08-05T15:51:39;29.40;99.90
41838;DHT22;27511;52.042;5.178;2022-08-05T15:54:05;29.80;99.90
41838;DHT22;27511;52.042;5.178;2022-08-05T15:56:31;29.70;99.90
41838;DHT22;27511;52.042;5.178;2022-08-05T15:58:56;29.90;99.90
41838;DHT22;27511;52.042;5.178;2022-08-05T16:01:22;30.40;99.90
41838;DHT22;27511;52.042;5.178;2022-08-05T16:03:49;30.50;99.90
41838;DHT22;27511;52.042;5.178;2022-08-05T16:06:15;30.40;99.90
41838;DHT22;27511;52.042;5.178;2022-08-05T16:08:41;30.70;99.90
41838;DHT22;27511;52.042;5.178;2022-08-05T16:11:07;31.10;99.90
41838;DHT22;27511;52.042;5.178;2022-08-05T16:13:34;31.70;99.90
41838;DHT22;27511;52.042;5.178;2022-08-05T16:16:03;32.20;99.90
41838;DHT22;27511;52.042;5.178;2022-08-05T16:18:30;32.30;99.90